Time;durP1;ratioP1;P1;durP2;ratioP2;P2;SDS_P1;SDS_P2;PMS_P1;PMS_P2;Temp;Humidity;BMP_temperature;BMP_pressure;BME280_temperature;BME280_humidity;BME280_pressure;Samples;Min_cycle;Max_cycle;Signal;HPM_P1;HPM_P2
2021/11/16 00:00:38;;;;;;;20.08;12.77;;;23.40;46.90;;;;;;6145168;28;83245;-65
2021/11/16 00:03:38;;;;;;;18.90;12.57;;;23.40;47.00;;;;;;6141174;28;83031;-65
2021/11/16 00:06:39;;;;;;;18.55;12.30;;;23.40;47.10;;;;;;6140710;28;83413;-65
2021/11/16 00:09:39;;;;;;;17.60;12.25;;;23.40;47.10;;;;;;6147860;28;83569;-64
2021/11/16 00:12:40;;;;;;;20.83;12.90;;;23.40;47.20;;;;;;6137564;28;84169;-65
2021/11/16 00:15:41;;;;;;;20.77;12.85;;;23.30;47.20;;;;;;6151098;28;83742;-65
2021/11/16 00:18:41;;;;;;;16.10;11.30;;;23.40;48.00;;;;;;6139952;28;83567;-65
2021/11/16 00:21:43;;;;;;;14.98;10.98;;;23.40;47.70;;;;;;6138322;28;83277;-65
2021/11/16 00:25:07;;;;;;;16.58;11.48;;;23.30;47.30;;;;;;6156432;28;83540;-65
2021/11/16 00:28:04;;;;;;;18.15;11.27;;;23.40;47.50;;;;;;6155493;28;83834;-64
2021/11/16 00:31:05;;;;;;;18.42;11.65;;;23.30;47.30;;;;;;6149627;28;85956;-65
2021/11/16 00:34:05;;;;;;;18.38;11.07;;;23.30;47.40;;;;;;6138698;28;83627;-65
2021/11/16 00:37:06;;;;;;;15.65;11.25;;;23.40;47.40;;;;;;6138991;28;83591;-64
2021/11/16 00:40:07;;;;;;;17.38;12.00;;;23.30;47.40;;;;;;6150357;28;83176;-64
2021/11/16 00:43:08;;;;;;;18.17;11.90;;;23.40;47.50;;;;;;6145541;28;82905;-64
2021/11/16 00:46:08;;;;;;;15.80;11.27;;;23.40;47.30;;;;;;6151555;28;83827;-65
2021/11/16 00:49:09;;;;;;;16.98;11.48;;;23.30;47.20;;;;;;6142702;28;84304;-64
2021/11/16 00:52:09;;;;;;;18.45;11.07;;;23.40;47.30;;;;;;6150879;28;83004;-65
2021/11/16 00:55:10;;;;;;;15.75;11.07;;;23.30;47.20;;;;;;6153020;28;82909;-65
2021/11/16 00:58:10;;;;;;;18.20;11.93;;;23.30;47.20;;;;;;6138316;28;84248;-66
2021/11/16 01:01:11;;;;;;;15.05;10.02;;;23.30;47.40;;;;;;6155574;28;83020;-65
2021/11/16 01:04:13;;;;;;;14.98;10.23;;;23.40;47.30;;;;;;6142613;28;83614;-64
2021/11/16 01:07:13;;;;;;;15.30;10.57;;;23.30;47.20;;;;;;6151072;28;83008;-65
2021/11/16 01:10:14;;;;;;;15.85;10.88;;;23.30;47.20;;;;;;6140230;28;83867;-65
2021/11/16 01:13:14;;;;;;;19.67;11.18;;;23.30;47.00;;;;;;6140392;28;82868;-66
2021/11/16 01:16:15;;;;;;;14.70;10.02;;;23.30;47.10;;;;;;6139013;28;84645;-65
2021/11/16 01:19:15;;;;;;;14.48;9.90;;;23.30;47.00;;;;;;6141977;28;84681;-65
2021/11/16 01:22:16;;;;;;;17.75;11.32;;;23.30;47.00;;;;;;6146286;28;84400;-64
2021/11/16 01:25:17;;;;;;;17.40;11.38;;;23.30;46.90;;;;;;6141483;28;82887;-65
2021/11/16 01:28:21;;;;;;;17.83;11.77;;;23.30;47.10;;;;;;6140517;28;83047;-65
2021/11/16 01:31:22;;;;;;;16.35;9.82;;;23.30;46.90;;;;;;6149149;28;84048;-64
2021/11/16 01:34:30;;;;;;;15.32;10.60;;;23.30;46.90;;;;;;6150099;28;83573;-65
2021/11/16 01:37:31;;;;;;;15.88;10.50;;;23.30;46.90;;;;;;6147051;28;83836;-65
2021/11/16 01:40:31;;;;;;;15.10;10.60;;;23.30;46.90;;;;;;6146052;28;83171;-64
2021/11/16 01:43:32;;;;;;;14.80;10.25;;;23.40;47.00;;;;;;6147181;28;83327;-65
2021/11/16 01:46:32;;;;;;;14.75;9.85;;;23.30;47.10;;;;;;6149124;28;83234;-65
2021/11/16 01:49:33;;;;;;;15.15;10.27;;;23.30;47.40;;;;;;6145955;28;82987;-64
2021/11/16 01:52:33;;;;;;;14.18;10.20;;;23.30;47.10;;;;;;6152359;28;83037;-64
2021/11/16 01:55:34;;;;;;;15.35;10.05;;;23.30;47.30;;;;;;6147464;28;82776;-64
2021/11/16 01:58:34;;;;;;;17.08;10.95;;;23.30;47.20;;;;;;6150733;28;82984;-65
2021/11/16 02:01:35;;;;;;;17.70;10.95;;;23.30;47.10;;;;;;6144072;28;83688;-64
2021/11/16 02:04:35;;;;;;;18.05;11.48;;;23.30;47.90;;;;;;6143233;28;83196;-65
2021/11/16 02:07:36;;;;;;;17.75;11.18;;;23.30;47.30;;;;;;6145781;28;85511;-65
2021/11/16 02:10:36;;;;;;;15.00;10.35;;;23.30;48.00;;;;;;6150024;28;83166;-64
2021/11/16 02:13:37;;;;;;;14.63;9.75;;;23.30;47.50;;;;;;6138834;28;82974;-64
2021/11/16 02:16:37;;;;;;;16.50;10.68;;;23.30;47.30;;;;;;6150355;28;83076;-64
2021/11/16 02:19:38;;;;;;;13.98;10.20;;;23.30;47.30;;;;;;6138000;28;83124;-65
2021/11/16 02:22:39;;;;;;;18.40;11.65;;;23.30;47.40;;;;;;6145815;28;83018;-65
2021/11/16 02:25:39;;;;;;;15.43;10.10;;;23.30;47.60;;;;;;6142936;28;83112;-65
2021/11/16 02:28:43;;;;;;;16.63;10.55;;;23.30;47.40;;;;;;6138265;28;82898;-66
2021/11/16 02:31:45;;;;;;;16.67;10.07;;;23.30;47.50;;;;;;6151800;28;84543;-65
2021/11/16 02:34:45;;;;;;;16.48;10.80;;;23.30;47.50;;;;;;6145535;28;83365;-65
2021/11/16 02:37:46;;;;;;;16.40;10.68;;;23.30;47.80;;;;;;6150929;28;83473;-66
2021/11/16 02:40:46;;;;;;;18.83;11.10;;;23.30;47.40;;;;;;6138515;28;83135;-65
2021/11/16 02:43:47;;;;;;;17.95;11.43;;;23.30;47.40;;;;;;6145329;28;83429;-64
2021/11/16 02:46:47;;;;;;;17.70;10.73;;;23.30;47.20;;;;;;6145069;28;83585;-64
2021/11/16 02:49:48;;;;;;;16.33;11.13;;;23.30;47.80;;;;;;6142283;28;83037;-64
2021/11/16 02:52:49;;;;;;;14.60;10.02;;;23.30;47.10;;;;;;6148778;28;84867;-65
2021/11/16 02:55:49;;;;;;;15.45;10.50;;;23.30;47.20;;;;;;6145713;28;83005;-64
2021/11/16 02:58:50;;;;;;;20.17;11.15;;;23.30;47.00;;;;;;6137409;28;83495;-65
2021/11/16 03:01:51;;;;;;;16.17;10.65;;;23.30;46.90;;;;;;6149729;28;83190;-65
2021/11/16 03:04:52;;;;;;;16.17;11.00;;;23.30;47.00;;;;;;6138226;28;83193;-64
2021/11/16 03:07:56;;;;;;;17.45;11.15;;;23.30;46.90;;;;;;6143739;28;83548;-64
2021/11/16 03:10:57;;;;;;;15.27;9.77;;;23.30;47.10;;;;;;6148566;28;83357;-64
2021/11/16 03:13:57;;;;;;;16.20;10.27;;;23.30;47.30;;;;;;6147045;28;82813;-63
2021/11/16 03:16:58;;;;;;;17.35;11.48;;;23.30;47.10;;;;;;6153012;28;82997;-63
2021/11/16 03:19:58;;;;;;;18.55;11.57;;;23.30;47.00;;;;;;6142196;28;82907;-63
2021/11/16 03:23:10;;;;;;;16.08;10.57;;;23.30;46.20;;;;;;6151427;28;84399;-63
2021/11/16 03:26:11;;;;;;;15.52;10.77;;;23.30;46.10;;;;;;6143941;28;83940;-63
2021/11/16 03:29:12;;;;;;;17.55;11.05;;;23.30;45.70;;;;;;6156610;28;83183;-63
2021/11/16 03:32:16;;;;;;;17.42;11.18;;;23.30;45.50;;;;;;6162079;28;83339;-63
2021/11/16 03:35:17;;;;;;;18.67;12.00;;;23.30;45.30;;;;;;6144285;28;84270;-63
2021/11/16 03:38:18;;;;;;;17.90;11.65;;;23.30;45.10;;;;;;6151325;28;82980;-63
2021/11/16 03:41:18;;;;;;;17.30;11.70;;;23.40;45.10;;;;;;6155150;28;84075;-64
2021/11/16 03:44:19;;;;;;;21.52;13.02;;;23.40;44.90;;;;;;6148959;28;84234;-64
2021/11/16 03:47:20;;;;;;;18.63;12.20;;;23.40;44.80;;;;;;6135665;28;84041;-64
2021/11/16 03:50:21;;;;;;;19.13;11.85;;;23.40;44.70;;;;;;6144950;28;83328;-64
2021/11/16 03:53:21;;;;;;;18.25;12.02;;;23.50;44.70;;;;;;6146695;28;85551;-63
2021/11/16 03:56:23;;;;;;;17.75;11.95;;;23.50;44.70;;;;;;6147214;28;83193;-63
2021/11/16 03:59:23;;;;;;;19.50;12.00;;;23.50;44.80;;;;;;6148741;28;85460;-63
2021/11/16 04:02:24;;;;;;;19.90;12.15;;;23.50;44.50;;;;;;6148028;28;83010;-63
2021/11/16 04:05:25;;;;;;;20.55;13.00;;;23.50;44.40;;;;;;6142168;28;83180;-63
2021/11/16 04:08:26;;;;;;;17.63;11.75;;;23.50;44.40;;;;;;6149679;28;83347;-63
2021/11/16 04:11:26;;;;;;;17.63;12.25;;;23.50;44.30;;;;;;6138787;28;83406;-63
2021/11/16 04:14:27;;;;;;;15.65;10.90;;;23.50;44.20;;;;;;6155311;28;82932;-64
2021/11/16 04:17:27;;;;;;;18.50;12.07;;;23.60;44.20;;;;;;6147209;28;84572;-64
2021/11/16 04:20:28;;;;;;;17.63;11.77;;;23.60;44.40;;;;;;6140056;28;82980;-64
2021/11/16 04:23:29;;;;;;;19.95;11.50;;;23.60;44.50;;;;;;6154503;28;82907;-64
2021/11/16 04:26:30;;;;;;;16.70;10.73;;;23.60;44.60;;;;;;6147073;28;83596;-64
2021/11/16 04:29:31;;;;;;;16.60;10.57;;;23.60;44.50;;;;;;6151863;28;83069;-64
2021/11/16 04:32:32;;;;;;;14.85;10.30;;;23.60;44.60;;;;;;6153881;28;83400;-64
2021/11/16 04:35:32;;;;;;;17.83;10.85;;;23.60;44.70;;;;;;6151173;28;84054;-64
2021/11/16 04:38:33;;;;;;;16.83;11.43;;;23.60;44.60;;;;;;6153622;28;83302;-64
2021/11/16 04:41:35;;;;;;;14.13;10.23;;;23.60;44.70;;;;;;6148443;28;86893;-65
2021/11/16 04:44:37;;;;;;;17.40;11.23;;;23.60;44.70;;;;;;6151344;28;83116;-63
2021/11/16 04:47:47;;;;;;;17.42;11.43;;;23.70;44.90;;;;;;6153068;28;83745;-65
2021/11/16 04:54:15;;;;;;;15.25;10.13;;;23.70;45.00;;;;;;6150359;28;84986;-64
2021/11/16 05:03:55;;;;;;;17.27;10.70;;;23.50;47.40;;;;;;6148201;28;80449;-65
2021/11/16 05:06:57;;;;;;;20.70;11.55;;;23.50;47.90;;;;;;6148627;28;83045;-65
2021/11/16 05:09:57;;;;;;;23.05;13.10;;;23.40;48.30;;;;;;6146616;28;83759;-64
2021/11/16 05:12:59;;;;;;;22.92;14.10;;;23.50;48.90;;;;;;6145216;28;83949;-65
2021/11/16 05:16:00;;;;;;;26.20;14.55;;;23.40;49.50;;;;;;6155045;28;84808;-65
2021/11/16 05:19:00;;;;;;;26.80;14.52;;;23.40;50.00;;;;;;6155157;28;83516;-63
2021/11/16 05:22:01;;;;;;;23.73;14.00;;;23.40;50.50;;;;;;6150094;28;83316;-63
2021/11/16 05:25:01;;;;;;;28.13;15.25;;;23.30;51.10;;;;;;6147645;28;83892;-65
2021/11/16 05:28:03;;;;;;;23.92;12.85;;;23.30;51.60;;;;;;6149429;28;85503;-66
2021/11/16 05:31:03;;;;;;;26.63;13.32;;;23.30;52.60;;;;;;6153356;28;83225;-66
2021/11/16 05:34:04;;;;;;;22.17;13.15;;;23.40;52.70;;;;;;6127950;28;84939;-65
2021/11/16 05:37:04;;;;;;;24.30;13.30;;;23.40;53.30;;;;;;6146712;28;83282;-67
2021/11/16 05:40:05;;;;;;;24.50;13.57;;;23.30;53.80;;;;;;6148600;28;85389;-66
2021/11/16 05:43:05;;;;;;;20.88;11.88;;;23.30;54.00;;;;;;6151323;28;84381;-67
2021/11/16 05:46:06;;;;;;;20.63;11.90;;;23.30;54.30;;;;;;6153014;28;83492;-67
2021/11/16 05:49:06;;;;;;;21.77;13.10;;;23.30;54.50;;;;;;6154226;28;83388;-66
2021/11/16 05:52:07;;;;;;;21.17;12.07;;;23.30;54.60;;;;;;6152208;28;82858;-67
2021/11/16 05:55:08;;;;;;;26.67;13.20;;;23.30;54.40;;;;;;6147140;28;83129;-66
2021/11/16 05:58:08;;;;;;;23.85;13.40;;;23.40;53.90;;;;;;6151182;28;82934;-67
2021/11/16 06:01:09;;;;;;;21.90;12.30;;;23.40;53.70;;;;;;6150567;28;83333;-65
2021/11/16 06:04:10;;;;;;;24.77;14.07;;;23.40;53.30;;;;;;6152084;28;83738;-65
2021/11/16 06:07:10;;;;;;;19.75;13.40;;;23.40;53.50;;;;;;6153063;28;83093;-67
2021/11/16 06:10:11;;;;;;;25.10;14.18;;;23.40;53.30;;;;;;6146932;28;83131;-65
2021/11/16 06:13:11;;;;;;;26.70;13.75;;;23.50;53.10;;;;;;6149407;28;83416;-65
2021/11/16 06:16:12;;;;;;;27.58;14.52;;;23.50;52.90;;;;;;6150126;28;83686;-65
2021/11/16 06:19:12;;;;;;;25.63;15.00;;;23.50;52.80;;;;;;6149245;28;84079;-65
2021/11/16 06:22:13;;;;;;;26.88;14.45;;;23.50;52.60;;;;;;6144455;28;84052;-65
2021/11/16 06:25:13;;;;;;;29.52;15.95;;;23.60;52.50;;;;;;6152165;28;89826;-66
2021/11/16 06:28:14;;;;;;;23.52;13.40;;;23.60;52.30;;;;;;6150404;28;84546;-65
2021/11/16 06:31:14;;;;;;;26.30;14.18;;;23.60;52.20;;;;;;6152451;28;83282;-67
2021/11/16 06:34:15;;;;;;;25.20;13.50;;;23.60;52.30;;;;;;6151432;28;83327;-67
2021/11/16 06:37:15;;;;;;;22.92;14.18;;;23.50;52.00;;;;;;6149058;28;83518;-67
2021/11/16 06:40:16;;;;;;;26.10;13.88;;;23.50;52.10;;;;;;6150734;28;83627;-67
2021/11/16 06:43:16;;;;;;;25.05;13.35;;;23.60;52.00;;;;;;6147061;28;83031;-68
2021/11/16 06:46:17;;;;;;;25.40;12.95;;;23.50;51.70;;;;;;6146795;28;84384;-67
2021/11/16 06:49:17;;;;;;;28.63;13.98;;;23.50;52.00;;;;;;6147703;28;83648;-68
2021/11/16 06:52:19;;;;;;;23.33;12.75;;;23.50;51.80;;;;;;6144309;28;84123;-71
2021/11/16 06:55:19;;;;;;;22.63;12.88;;;23.50;51.80;;;;;;6151554;28;83139;-63
2021/11/16 06:58:20;;;;;;;21.30;11.88;;;23.50;51.70;;;;;;6148656;28;82924;-66
2021/11/16 07:01:21;;;;;;;21.27;11.52;;;23.50;51.80;;;;;;6143893;28;84024;-66
2021/11/16 07:04:21;;;;;;;18.48;12.00;;;23.50;51.70;;;;;;6148776;28;82890;-67
2021/11/16 07:07:22;;;;;;;20.42;12.38;;;23.50;51.70;;;;;;6144959;28;84391;-67
2021/11/16 07:10:25;;;;;;;19.80;11.93;;;23.50;51.80;;;;;;6143081;28;84114;-66
2021/11/16 07:13:26;;;;;;;22.35;12.48;;;23.50;51.70;;;;;;6143873;28;83136;-72
2021/11/16 07:16:26;;;;;;;18.92;11.07;;;23.50;51.80;;;;;;6144094;28;85598;-72
2021/11/16 07:19:26;;;;;;;18.60;11.30;;;23.50;51.90;;;;;;6147112;28;86293;-70
2021/11/16 07:22:27;;;;;;;20.42;12.50;;;23.50;51.80;;;;;;6143752;28;84708;-74
2021/11/16 07:25:28;;;;;;;23.10;12.63;;;23.40;51.70;;;;;;6145902;28;84151;-67
2021/11/16 07:28:28;;;;;;;18.02;11.50;;;23.40;51.60;;;;;;6151164;28;86039;-67
2021/11/16 07:31:29;;;;;;;20.20;12.35;;;23.40;51.50;;;;;;6149430;28;84235;-68
2021/11/16 07:34:29;;;;;;;21.50;12.52;;;23.40;51.50;;;;;;6147736;28;83240;-68
2021/11/16 07:37:30;;;;;;;20.88;11.98;;;23.40;51.30;;;;;;6142558;28;83322;-67
2021/11/16 07:40:32;;;;;;;20.25;12.60;;;23.40;51.00;;;;;;6148764;28;85100;-68
2021/11/16 07:43:32;;;;;;;19.80;12.38;;;23.40;51.10;;;;;;6141875;28;84670;-67
2021/11/16 07:46:33;;;;;;;18.23;11.80;;;23.40;50.90;;;;;;6148246;28;85828;-68
2021/11/16 07:49:34;;;;;;;20.60;12.15;;;23.40;50.80;;;;;;6148901;28;82909;-67
2021/11/16 07:52:34;;;;;;;17.70;12.00;;;23.40;50.60;;;;;;6147405;28;83451;-67
2021/11/16 07:55:35;;;;;;;21.00;10.82;;;23.40;50.50;;;;;;6144132;28;82767;-67
2021/11/16 07:58:36;;;;;;;18.90;10.88;;;23.40;50.30;;;;;;6144128;28;83170;-68
2021/11/16 08:01:41;;;;;;;15.88;10.82;;;23.40;50.10;;;;;;6147007;28;84097;-67
2021/11/16 08:07:58;;;;;;;17.30;10.00;;;23.40;49.80;;;;;;6147535;28;84224;-66
2021/11/16 08:10:58;;;;;;;;;;;23.40;49.50;;;;;;6147187;28;83329;-67
2021/11/16 08:13:59;;;;;;;15.10;9.95;;;23.30;49.30;;;;;;6161761;28;82741;-67
2021/11/16 08:17:00;;;;;;;14.02;9.27;;;23.40;49.20;;;;;;6155905;28;80500;-66
2021/11/16 08:20:00;;;;;;;15.13;8.98;;;23.30;48.90;;;;;;6149501;28;83144;-67
2021/11/16 08:23:01;;;;;;;13.27;9.32;;;23.40;48.80;;;;;;6155054;28;80398;-67
2021/11/16 08:26:01;;;;;;;13.13;8.90;;;23.30;48.60;;;;;;6149301;28;82204;-66
2021/11/16 08:29:02;;;;;;;17.05;9.98;;;23.40;48.50;;;;;;6151287;28;80591;-68
2021/11/16 08:32:10;;;;;;;14.35;8.98;;;23.40;48.30;;;;;;6145507;28;83436;-67
2021/11/16 08:35:11;;;;;;;16.20;8.57;;;23.40;48.30;;;;;;6153645;28;86078;-67
2021/11/16 08:38:12;;;;;;;15.00;9.10;;;23.30;48.10;;;;;;6149272;28;81529;-67
2021/11/16 08:41:13;;;;;;;14.20;9.25;;;23.30;48.00;;;;;;6152785;28;80695;-67
2021/11/16 08:44:14;;;;;;;13.25;9.45;;;23.30;47.90;;;;;;6154297;28;80474;-69
2021/11/16 08:47:15;;;;;;;14.02;9.20;;;23.30;47.90;;;;;;6148262;28;80602;-69
2021/11/16 08:50:16;;;;;;;14.02;9.35;;;23.30;47.90;;;;;;6152477;28;81076;-70
2021/11/16 08:53:16;;;;;;;13.60;10.18;;;23.40;47.80;;;;;;6148771;28;80649;-70
2021/11/16 08:56:17;;;;;;;14.25;9.40;;;23.30;47.50;;;;;;6145962;28;82947;-69
2021/11/16 08:59:20;;;;;;;13.23;8.48;;;23.30;47.70;;;;;;6154063;28;83234;-70
2021/11/16 09:02:20;;;;;;;14.45;9.65;;;23.30;47.50;;;;;;6153092;28;80463;-69
2021/11/16 09:05:21;;;;;;;14.82;9.60;;;23.30;47.50;;;;;;6157506;28;80494;-69
2021/11/16 09:08:23;;;;;;;15.63;9.82;;;23.30;47.50;;;;;;6154266;28;80633;-69
2021/11/16 09:11:24;;;;;;;15.82;9.60;;;23.30;47.40;;;;;;6153649;28;80858;-70
2021/11/16 09:14:25;;;;;;;15.20;9.60;;;23.30;47.30;;;;;;6153963;28;80799;-69
2021/11/16 09:17:25;;;;;;;16.90;10.18;;;23.40;47.20;;;;;;6154242;28;81891;-70
2021/11/16 09:20:26;;;;;;;17.17;10.50;;;23.30;47.20;;;;;;6152491;28;83192;-70
2021/11/16 09:23:26;;;;;;;15.30;9.90;;;23.40;46.90;;;;;;6141580;28;84183;-68
2021/11/16 09:29:30;;;;;;;16.35;10.93;;;23.30;46.70;;;;;;6151854;28;80405;-68
2021/11/16 09:32:31;;;;;;;19.85;9.73;;;23.30;46.70;;;;;;6148097;28;86223;-69
2021/11/16 09:35:31;;;;;;;17.85;10.90;;;23.20;46.30;;;;;;6149861;28;81606;-69
2021/11/16 09:38:32;;;;;;;18.02;10.77;;;23.30;46.20;;;;;;6147293;28;83439;-69
2021/11/16 09:41:32;;;;;;;17.05;10.63;;;23.30;46.10;;;;;;6150860;28;83833;-70
2021/11/16 09:44:33;;;;;;;16.77;10.40;;;23.20;45.90;;;;;;6151130;28;84112;-69
2021/11/16 09:47:34;;;;;;;17.60;11.05;;;23.30;45.70;;;;;;6146892;28;90138;-70
2021/11/16 09:50:34;;;;;;;18.15;11.70;;;23.30;45.70;;;;;;6148199;28;83475;-70
2021/11/16 09:53:35;;;;;;;17.20;10.98;;;23.30;45.60;;;;;;6147252;28;82965;-69
2021/11/16 09:56:35;;;;;;;17.75;11.90;;;23.30;45.50;;;;;;6143669;28;83311;-69
2021/11/16 09:59:37;;;;;;;19.42;11.75;;;23.30;45.30;;;;;;6148259;28;83246;-69
2021/11/16 10:02:38;;;;;;;17.65;11.35;;;23.30;45.40;;;;;;6144484;28;86483;-68
2021/11/16 10:05:40;;;;;;;18.83;12.05;;;23.30;45.30;;;;;;6151099;28;83097;-69
2021/11/16 10:08:40;;;;;;;20.35;12.07;;;23.40;45.40;;;;;;6150898;28;83722;-69
2021/11/16 10:11:42;;;;;;;19.67;11.65;;;23.40;45.20;;;;;;6149066;28;84553;-68
2021/11/16 10:14:43;;;;;;;20.15;12.27;;;23.40;45.20;;;;;;6144725;28;83492;-68
2021/11/16 10:17:43;;;;;;;17.50;11.30;;;23.40;44.90;;;;;;6148006;28;84477;-69
2021/11/16 10:20:45;;;;;;;20.67;12.13;;;23.40;45.10;;;;;;6150189;28;83558;-69
2021/11/16 10:23:47;;;;;;;19.13;13.07;;;23.40;45.10;;;;;;6150694;28;84136;-69
2021/11/16 10:26:47;;;;;;;22.10;12.63;;;23.40;45.10;;;;;;6146387;28;83698;-69
2021/11/16 10:29:48;;;;;;;22.45;14.25;;;23.40;45.00;;;;;;6143432;28;83393;-69
2021/11/16 10:32:49;;;;;;;22.80;13.60;;;23.40;45.00;;;;;;6149054;28;90957;-68
2021/11/16 10:35:50;;;;;;;26.95;16.00;;;23.40;45.00;;;;;;6146423;28;83255;-69
2021/11/16 10:38:51;;;;;;;25.92;15.18;;;23.40;44.90;;;;;;6146463;28;83191;-71
2021/11/16 10:41:52;;;;;;;24.60;14.55;;;23.40;44.90;;;;;;6147420;28;85759;-68
2021/11/16 10:44:52;;;;;;;30.88;15.48;;;23.40;44.70;;;;;;6145064;28;84602;-69
2021/11/16 10:47:53;;;;;;;52.75;17.08;;;23.40;45.20;;;;;;6147881;28;84290;-69
2021/11/16 10:50:53;;;;;;;39.55;15.48;;;23.40;45.40;;;;;;6145001;28;83004;-69
2021/11/16 10:53:54;;;;;;;39.67;15.90;;;23.40;46.00;;;;;;6146305;28;83146;-69
2021/11/16 10:56:55;;;;;;;34.92;16.45;;;23.40;45.40;;;;;;6146402;28;83244;-69
2021/11/16 10:59:55;;;;;;;32.03;14.63;;;23.40;45.30;;;;;;6144716;28;84356;-69
2021/11/16 11:02:56;;;;;;;43.22;15.85;;;23.50;45.40;;;;;;6148056;28;85481;-69
2021/11/16 11:05:56;;;;;;;32.13;14.65;;;23.50;45.20;;;;;;6148129;28;84141;-69
2021/11/16 11:08:57;;;;;;;34.33;14.90;;;23.50;45.10;;;;;;6151645;28;84274;-67
2021/11/16 11:11:57;;;;;;;28.05;13.50;;;23.50;45.00;;;;;;6142265;28;83738;-70
2021/11/16 11:14:58;;;;;;;31.38;14.50;;;23.50;45.10;;;;;;6149351;28;83075;-68
2021/11/16 11:18:05;;;;;;;33.25;15.27;;;23.50;44.90;;;;;;6147585;28;83031;-68
2021/11/16 11:21:06;;;;;;;33.42;14.48;;;23.50;45.00;;;;;;6147347;28;83294;-67
2021/11/16 11:24:07;;;;;;;30.00;15.82;;;23.50;44.80;;;;;;6147023;28;83892;-68
2021/11/16 11:30:18;;;;;;;26.88;13.52;;;23.50;45.00;;;;;;6146556;28;84198;-67
2021/11/16 11:33:18;;;;;;;28.38;14.80;;;23.60;44.90;;;;;;6146559;28;83374;-67
2021/11/16 11:36:19;;;;;;;30.05;14.18;;;23.60;45.20;;;;;;6146030;28;84252;-67
2021/11/16 11:39:19;;;;;;;25.00;14.15;;;23.50;45.10;;;;;;6149257;28;83144;-68
2021/11/16 11:42:20;;;;;;;25.33;13.45;;;23.60;45.20;;;;;;6145303;28;83791;-68
2021/11/16 11:45:24;;;;;;;29.85;14.13;;;23.50;44.90;;;;;;6151547;28;83582;-69
2021/11/16 11:48:25;;;;;;;24.77;13.02;;;23.50;45.10;;;;;;6150400;28;83535;-69
2021/11/16 11:51:25;;;;;;;24.17;12.73;;;23.50;45.10;;;;;;6149904;28;84788;-69
2021/11/16 11:54:26;;;;;;;24.88;11.75;;;23.50;45.80;;;;;;6147661;28;83639;-67
2021/11/16 11:57:27;;;;;;;26.42;12.48;;;23.50;45.30;;;;;;6150643;28;83787;-67
2021/11/16 12:00:27;;;;;;;23.55;12.93;;;23.50;45.30;;;;;;6150482;28;83374;-69
2021/11/16 12:03:28;;;;;;;22.40;11.77;;;23.50;45.50;;;;;;6147610;28;83582;-67
2021/11/16 12:06:30;;;;;;;23.55;12.77;;;23.50;45.40;;;;;;6148464;28;83637;-68
2021/11/16 12:09:30;;;;;;;20.08;11.50;;;23.50;45.30;;;;;;6150956;28;83273;-67
2021/11/16 12:12:31;;;;;;;23.13;11.82;;;23.50;45.10;;;;;;6152822;28;83468;-68
2021/11/16 12:15:32;;;;;;;18.85;11.18;;;23.50;45.00;;;;;;6151930;28;84373;-68
2021/11/16 12:18:32;;;;;;;19.73;11.20;;;23.50;45.00;;;;;;6150723;28;83379;-69
2021/11/16 12:21:33;;;;;;;18.55;10.95;;;23.50;45.00;;;;;;6151244;28;83384;-70
2021/11/16 12:24:33;;;;;;;23.77;11.35;;;23.50;44.90;;;;;;6151838;28;83046;-70
2021/11/16 12:27:34;;;;;;;20.10;10.63;;;23.50;44.90;;;;;;6148760;28;87310;-71
2021/11/16 12:30:34;;;;;;;23.10;12.45;;;23.50;44.90;;;;;;6148824;28;83137;-69
2021/11/16 12:33:35;;;;;;;19.48;11.80;;;23.50;44.80;;;;;;6152231;28;84335;-69
2021/11/16 12:36:35;;;;;;;23.17;12.73;;;23.50;44.80;;;;;;6148547;28;83459;-69
2021/11/16 12:39:36;;;;;;;20.92;11.02;;;23.50;44.80;;;;;;6144451;28;84129;-70
2021/11/16 12:42:36;;;;;;;25.05;12.63;;;23.50;44.80;;;;;;6152248;28;83261;-70
2021/11/16 12:45:37;;;;;;;22.52;11.85;;;23.50;44.80;;;;;;6150646;28;83508;-69
2021/11/16 12:48:39;;;;;;;21.02;11.13;;;23.40;44.70;;;;;;6147711;28;83211;-69
2021/11/16 12:51:39;;;;;;;25.15;11.77;;;23.40;44.80;;;;;;6151287;28;83166;-69
2021/11/16 12:54:40;;;;;;;19.15;11.27;;;23.40;44.80;;;;;;6145675;28;86192;-69
2021/11/16 12:57:40;;;;;;;17.65;11.00;;;23.40;44.80;;;;;;6148764;28;83932;-70
2021/11/16 13:00:41;;;;;;;20.42;11.70;;;23.40;44.80;;;;;;6150649;28;83252;-70
2021/11/16 13:03:41;;;;;;;17.52;11.07;;;23.40;44.70;;;;;;6151698;28;83515;-70
2021/11/16 13:06:42;;;;;;;20.83;11.98;;;23.40;44.70;;;;;;6150516;28;84205;-70
2021/11/16 13:09:44;;;;;;;23.17;12.50;;;23.40;44.70;;;;;;6150537;28;83706;-70
2021/11/16 13:12:44;;;;;;;20.35;12.60;;;23.40;44.70;;;;;;6147007;28;82932;-70
2021/11/16 13:15:45;;;;;;;19.63;11.55;;;23.40;44.80;;;;;;6148220;28;83110;-69
2021/11/16 13:18:45;;;;;;;20.13;11.60;;;23.40;44.80;;;;;;6150119;28;83753;-69
2021/11/16 13:21:46;;;;;;;22.23;12.35;;;23.40;44.80;;;;;;6153202;28;83226;-70
2021/11/16 13:24:46;;;;;;;22.27;11.77;;;23.40;44.80;;;;;;6145454;28;83764;-69
2021/11/16 13:27:47;;;;;;;23.77;13.68;;;23.40;44.70;;;;;;6152278;28;85845;-71
2021/11/16 13:30:47;;;;;;;24.35;13.95;;;23.40;45.40;;;;;;6147329;28;83585;-72
2021/11/16 13:33:48;;;;;;;28.55;13.23;;;23.40;44.90;;;;;;6140506;28;84183;-66
2021/11/16 13:36:49;;;;;;;29.02;13.13;;;23.40;45.00;;;;;;6142546;28;84344;-70
2021/11/16 13:39:49;;;;;;;25.73;13.50;;;23.40;46.20;;;;;;6147180;28;83462;-69
2021/11/16 13:42:51;;;;;;;47.20;17.08;;;23.30;47.40;;;;;;6152318;28;84559;-68
2021/11/16 13:45:51;;;;;;;41.50;15.93;;;23.30;48.30;;;;;;6151066;28;83416;-68
2021/11/16 13:48:52;;;;;;;35.72;13.52;;;23.30;49.00;;;;;;6142701;28;83938;-67
2021/11/16 13:51:52;;;;;;;24.63;12.38;;;23.40;49.80;;;;;;6150993;28;85997;-68
2021/11/16 13:54:53;;;;;;;30.92;13.77;;;23.30;50.10;;;;;;6148979;28;84009;-68
2021/11/16 13:57:54;;;;;;;31.40;12.98;;;23.40;50.60;;;;;;6153657;28;84025;-69
2021/11/16 14:00:56;;;;;;;32.10;13.30;;;23.30;50.50;;;;;;6150708;28;83962;-69
2021/11/16 14:03:57;;;;;;;33.38;13.60;;;23.40;50.60;;;;;;6148855;28;83336;-70
2021/11/16 14:06:57;;;;;;;23.13;12.20;;;23.30;50.70;;;;;;6145452;28;83896;-69
2021/11/16 14:09:58;;;;;;;28.55;13.18;;;23.30;50.90;;;;;;6147818;28;83118;-68
2021/11/16 14:12:58;;;;;;;26.30;14.23;;;23.30;51.00;;;;;;6148132;28;89844;-69
2021/11/16 14:15:59;;;;;;;20.92;12.10;;;23.30;50.90;;;;;;6148106;28;83322;-67
2021/11/16 14:18:59;;;;;;;25.00;11.88;;;23.30;51.30;;;;;;6146878;28;83164;-65
2021/11/16 14:22:00;;;;;;;21.25;12.32;;;23.30;51.80;;;;;;6143512;28;83918;-66
2021/11/16 14:25:01;;;;;;;21.67;12.43;;;23.30;52.00;;;;;;6150572;28;83680;-66
2021/11/16 14:28:01;;;;;;;20.60;11.98;;;23.30;52.00;;;;;;6145069;28;83430;-67
2021/11/16 14:31:02;;;;;;;22.17;11.05;;;23.30;52.10;;;;;;6141879;28;82910;-65
2021/11/16 14:34:02;;;;;;;19.98;11.20;;;23.30;52.30;;;;;;6146720;28;83679;-68
2021/11/16 14:37:03;;;;;;;21.35;10.68;;;23.40;52.30;;;;;;6151729;28;83438;-69
2021/11/16 14:40:03;;;;;;;25.38;11.98;;;23.30;52.20;;;;;;6149212;28;83368;-68
2021/11/16 14:43:04;;;;;;;19.10;11.15;;;23.30;52.50;;;;;;6142923;28;83215;-68
2021/11/16 14:46:04;;;;;;;18.17;10.45;;;23.30;52.70;;;;;;6149766;28;82883;-67
2021/11/16 14:49:06;;;;;;;20.20;11.45;;;23.30;52.80;;;;;;6147671;28;83137;-67
2021/11/16 14:52:07;;;;;;;18.95;10.40;;;23.30;52.70;;;;;;6146101;28;82815;-69
2021/11/16 14:55:07;;;;;;;17.75;10.27;;;23.30;52.80;;;;;;6147402;28;83240;-70
2021/11/16 14:58:08;;;;;;;30.35;10.60;;;23.30;52.90;;;;;;6145147;28;84957;-69
2021/11/16 15:01:08;;;;;;;17.05;10.25;;;23.30;52.80;;;;;;6146905;28;83526;-70
2021/11/16 15:04:09;;;;;;;16.83;10.05;;;23.40;52.50;;;;;;6142326;28;83821;-68
2021/11/16 15:07:09;;;;;;;18.30;10.13;;;23.40;53.10;;;;;;6148736;28;83261;-68
2021/11/16 15:10:10;;;;;;;15.98;9.30;;;23.40;52.60;;;;;;6144015;28;83157;-68
2021/11/16 15:13:10;;;;;;;18.02;10.50;;;23.40;52.50;;;;;;6154101;28;83155;-68
2021/11/16 15:16:11;;;;;;;18.33;9.88;;;23.40;53.00;;;;;;6146380;28;83243;-68
2021/11/16 15:19:14;;;;;;;15.15;9.70;;;23.40;53.00;;;;;;6151858;28;82365;-67
2021/11/16 15:22:19;;;;;;;14.13;8.95;;;23.40;53.10;;;;;;6160898;28;81351;-67
2021/11/16 15:25:19;;;;;;;18.83;10.45;;;23.40;53.20;;;;;;6160126;28;80758;-68
2021/11/16 15:28:21;;;;;;;15.48;10.30;;;23.40;53.40;;;;;;6153418;28;83335;-66
2021/11/16 15:31:21;;;;;;;16.08;10.45;;;23.40;53.30;;;;;;6153641;28;83181;-68
2021/11/16 15:34:23;;;;;;;16.88;10.07;;;23.40;53.40;;;;;;6150632;28;83298;-68
2021/11/16 15:37:24;;;;;;;18.23;9.77;;;23.40;53.40;;;;;;6152628;28;84190;-69